Time;durP1;ratioP1;P1;durP2;ratioP2;P2;SDS_P1;SDS_P2;PMS_P1;PMS_P2;Temp;Humidity;BMP_temperature;BMP_pressure;BME280_temperature;BME280_humidity;BME280_pressure;Samples;Min_cycle;Max_cycle;Signal;HPM_P1;HPM_P2
2021/06/18 00:01:44;;;;;;;14.38;12.02;;;24.20;83.50;;;;;;5085988;28;20936;-73
2021/06/18 00:04:11;;;;;;;13.70;12.02;;;24.40;82.60;;;;;;5085687;28;20437;-73
2021/06/18 00:06:38;;;;;;;13.15;11.73;;;24.40;82.10;;;;;;5083820;28;20437;-72
2021/06/18 00:09:05;;;;;;;14.68;12.25;;;24.50;82.70;;;;;;5090381;28;20422;-74
2021/06/18 00:11:32;;;;;;;13.20;11.30;;;24.60;81.60;;;;;;5087796;28;20788;-73
2021/06/18 00:14:02;;;;;;;14.75;11.90;;;24.60;81.40;;;;;;5083313;28;20428;-73
2021/06/18 00:16:30;;;;;;;13.18;11.77;;;24.60;81.70;;;;;;5080658;28;20431;-73
2021/06/18 00:18:57;;;;;;;13.75;11.82;;;24.70;81.10;;;;;;5086008;28;20429;-74
2021/06/18 00:21:24;;;;;;;14.52;12.45;;;24.80;81.20;;;;;;5086236;28;20406;-72
2021/06/18 00:23:51;;;;;;;13.60;12.20;;;24.80;81.00;;;;;;5085749;28;20436;-73
2021/06/18 00:26:18;;;;;;;13.70;12.20;;;24.80;81.00;;;;;;5084859;28;20797;-72
2021/06/18 00:28:44;;;;;;;14.45;12.77;;;24.80;81.00;;;;;;5083060;28;20490;-74
2021/06/18 00:31:11;;;;;;;13.73;12.23;;;24.80;80.90;;;;;;5083183;28;20414;-74
2021/06/18 00:33:40;;;;;;;14.32;12.82;;;24.80;80.90;;;;;;5083733;28;20423;-73
2021/06/18 00:36:07;;;;;;;14.40;12.90;;;24.80;80.90;;;;;;5084073;28;20429;-73
2021/06/18 00:38:34;;;;;;;14.30;12.73;;;24.80;80.90;;;;;;5085915;28;20685;-73
2021/06/18 00:41:01;;;;;;;15.25;12.82;;;24.80;80.90;;;;;;5084691;28;20423;-74
2021/06/18 00:43:28;;;;;;;16.00;13.20;;;24.80;81.00;;;;;;5081689;28;20444;-73
2021/06/18 00:45:55;;;;;;;15.65;13.95;;;24.80;81.10;;;;;;5084492;28;20893;-73
2021/06/18 00:48:23;;;;;;;15.32;13.80;;;24.80;81.20;;;;;;5086914;28;20470;-73
2021/06/18 00:50:51;;;;;;;14.60;13.13;;;24.80;81.40;;;;;;5091831;28;20414;-74
2021/06/18 00:53:19;;;;;;;13.73;12.30;;;24.80;81.50;;;;;;5089014;28;20206;-73
2021/06/18 00:55:47;;;;;;;14.60;13.10;;;24.40;82.70;;;;;;5091377;28;20206;-75
2021/06/18 00:58:15;;;;;;;16.13;13.65;;;24.10;83.50;;;;;;5088635;28;20658;-73
2021/06/18 01:00:43;;;;;;;14.07;12.57;;;23.90;84.30;;;;;;5090088;28;20213;-74
2021/06/18 01:03:10;;;;;;;14.90;13.05;;;23.60;84.90;;;;;;5088965;28;20603;-74
2021/06/18 01:05:38;;;;;;;13.88;12.27;;;23.50;85.50;;;;;;5095832;28;20197;-74
2021/06/18 01:08:12;;;;;;;14.07;12.68;;;23.40;86.00;;;;;;5089668;28;20202;-74
2021/06/18 01:10:56;;;;;;;16.60;13.93;;;23.30;86.30;;;;;;5090343;28;20201;-74
2021/06/18 01:13:36;;;;;;;14.73;13.23;;;23.30;86.70;;;;;;5087062;28;20232;-73
2021/06/18 01:16:08;;;;;;;15.95;13.55;;;23.10;86.90;;;;;;5090656;28;20204;-74
2021/06/18 01:18:40;;;;;;;15.63;13.85;;;23.00;87.40;;;;;;5089417;28;20629;-74
2021/06/18 01:21:20;;;;;;;15.77;13.88;;;22.90;87.90;;;;;;5093870;28;20201;-75
2021/06/18 01:23:55;;;;;;;15.90;14.23;;;22.90;88.40;;;;;;5089785;28;20231;-73
2021/06/18 01:27:01;;;;;;;16.50;13.60;;;22.80;88.80;;;;;;5089846;28;20292;-73
2021/06/18 01:29:34;;;;;;;16.40;14.50;;;22.70;89.00;;;;;;5058773;28;20232;-74
2021/06/18 01:32:03;;;;;;;16.85;15.05;;;22.70;89.60;;;;;;5087961;28;20210;-73
2021/06/18 01:34:33;;;;;;;19.27;14.75;;;22.70;90.00;;;;;;5089996;28;20213;-74
2021/06/18 01:37:05;;;;;;;16.63;14.65;;;22.70;90.20;;;;;;5088012;28;20205;-74
2021/06/18 01:39:33;;;;;;;15.90;14.00;;;22.70;90.40;;;;;;5091890;28;20206;-74
2021/06/18 01:42:02;;;;;;;18.38;15.07;;;22.70;90.50;;;;;;5086064;28;20212;-73
2021/06/18 01:44:32;;;;;;;19.10;14.45;;;22.70;90.60;;;;;;5089071;28;20574;-73
2021/06/18 01:47:00;;;;;;;17.10;15.30;;;22.70;90.80;;;;;;5085701;28;20432;-73
2021/06/18 01:49:29;;;;;;;15.82;14.23;;;23.20;90.80;;;;;;5087653;28;20464;-73
2021/06/18 01:51:58;;;;;;;16.95;15.15;;;23.60;90.40;;;;;;5085258;28;20941;-73
2021/06/18 01:54:27;;;;;;;17.13;15.32;;;23.80;90.00;;;;;;5088477;28;20429;-73
2021/06/18 01:56:56;;;;;;;17.80;15.07;;;23.80;89.70;;;;;;5083415;28;20434;-74
2021/06/18 01:59:25;;;;;;;17.25;15.45;;;23.90;89.60;;;;;;5086395;28;20429;-74
2021/06/18 02:01:54;;;;;;;19.63;16.40;;;23.90;89.20;;;;;;5085010;28;20425;-74
2021/06/18 02:04:21;;;;;;;18.40;16.40;;;24.10;90.00;;;;;;5090390;28;20430;-73
2021/06/18 02:06:49;;;;;;;18.88;16.88;;;24.10;90.50;;;;;;5092931;28;20435;-74
2021/06/18 02:09:18;;;;;;;19.20;16.30;;;24.10;90.80;;;;;;5085817;28;20201;-73
2021/06/18 02:11:46;;;;;;;18.13;16.23;;;23.80;91.20;;;;;;5087765;28;20206;-74
2021/06/18 02:14:16;;;;;;;19.80;16.35;;;23.50;91.60;;;;;;5086996;28;20200;-73
2021/06/18 02:16:48;;;;;;;21.30;16.52;;;23.30;91.80;;;;;;5086579;28;20207;-74
2021/06/18 02:19:18;;;;;;;18.75;16.70;;;23.10;92.00;;;;;;5087156;28;20681;-73
2021/06/18 02:21:47;;;;;;;21.08;16.92;;;23.00;92.20;;;;;;5086244;28;20273;-74
2021/06/18 02:24:15;;;;;;;19.35;17.17;;;22.90;92.40;;;;;;5091007;28;20206;-73
2021/06/18 02:26:43;;;;;;;20.25;17.38;;;22.80;92.50;;;;;;5087471;28;20221;-73
2021/06/18 02:29:10;;;;;;;20.65;17.33;;;22.80;92.70;;;;;;5088282;28;20202;-74
2021/06/18 02:31:39;;;;;;;20.13;17.75;;;22.70;92.90;;;;;;5088091;28;20209;-74
2021/06/18 02:34:07;;;;;;;20.90;17.90;;;22.70;93.00;;;;;;5079190;28;20803;-73
2021/06/18 02:36:37;;;;;;;22.60;19.67;;;22.70;93.20;;;;;;5081219;28;20819;-73
2021/06/18 02:39:05;;;;;;;22.33;19.92;;;23.30;93.20;;;;;;5081897;28;20433;-74
2021/06/18 02:41:33;;;;;;;22.73;19.85;;;23.60;92.80;;;;;;5086555;28;20437;-73
2021/06/18 02:44:02;;;;;;;29.42;20.75;;;23.80;92.70;;;;;;5087172;28;20422;-73
2021/06/18 02:46:35;;;;;;;25.02;20.80;;;23.90;92.90;;;;;;5088014;28;20418;-73
2021/06/18 02:49:05;;;;;;;26.98;21.58;;;24.00;93.30;;;;;;5091622;28;20414;-73
2021/06/18 02:51:40;;;;;;;28.48;22.33;;;24.00;93.70;;;;;;5082829;28;20490;-73
2021/06/18 02:54:14;;;;;;;34.83;24.15;;;24.00;94.00;;;;;;5083949;28;20923;-74
2021/06/18 02:56:45;;;;;;;29.60;23.88;;;23.90;94.70;;;;;;5082028;28;20433;-72
2021/06/18 02:59:17;;;;;;;31.33;25.05;;;23.90;95.00;;;;;;5081344;28;20455;-73
2021/06/18 03:01:45;;;;;;;36.65;27.17;;;23.70;95.20;;;;;;5083603;28;20422;-73
2021/06/18 03:04:21;;;;;;;47.97;30.70;;;23.60;96.20;;;;;;5087815;28;20422;-74
2021/06/18 03:06:52;;;;;;;45.53;30.50;;;23.40;97.10;;;;;;5085696;28;20436;-72
2021/06/18 03:09:27;;;;;;;44.30;31.30;;;23.30;98.20;;;;;;5086767;28;20425;-74
2021/06/18 03:11:56;;;;;;;51.63;34.78;;;23.20;99.00;;;;;;5081790;28;20433;-73
2021/06/18 03:14:27;;;;;;;55.10;35.60;;;23.10;99.90;;;;;;5085555;28;20429;-73
2021/06/18 03:16:58;;;;;;;51.88;35.22;;;23.00;99.90;;;;;;5084085;28;20431;-74
2021/06/18 03:19:29;;;;;;;54.50;36.70;;;23.00;99.90;;;;;;5090033;28;20459;-74
2021/06/18 03:22:00;;;;;;;60.65;38.03;;;22.90;99.90;;;;;;5087830;28;20433;-73
2021/06/18 03:24:30;;;;;;;73.25;40.45;;;22.90;99.90;;;;;;5083878;28;20426;-75
2021/06/18 03:26:58;;;;;;;57.40;36.95;;;22.80;99.90;;;;;;5086132;28;20943;-75
2021/06/18 03:29:28;;;;;;;63.25;36.60;;;22.70;99.90;;;;;;5084620;28;20902;-75
2021/06/18 03:31:55;;;;;;;50.45;33.75;;;22.70;99.90;;;;;;5083593;28;20205;-74
2021/06/18 03:34:23;;;;;;;78.90;45.47;;;22.30;99.90;;;;;;5084847;28;20433;-74
2021/06/18 03:36:51;;;;;;;83.43;47.42;;;22.30;99.90;;;;;;5083101;28;21197;-75
2021/06/18 03:39:20;;;;;;;72.63;45.27;;;22.40;99.90;;;;;;5087799;28;20430;-75
2021/06/18 03:41:47;;;;;;;57.97;38.03;;;22.40;99.90;;;;;;5079112;28;20205;-75
2021/06/18 03:44:15;;;;;;;63.80;38.83;;;22.00;99.90;;;;;;5093438;28;20229;-74
2021/06/18 03:46:43;;;;;;;64.60;40.42;;;21.80;99.90;;;;;;5087566;28;20198;-74
2021/06/18 03:49:12;;;;;;;60.40;38.78;;;21.60;99.90;;;;;;5089286;28;20204;-74
2021/06/18 03:51:39;;;;;;;69.30;42.28;;;21.50;99.90;;;;;;5086292;28;20208;-74
2021/06/18 03:54:07;;;;;;;78.50;49.05;;;21.30;99.90;;;;;;5089421;28;20433;-74
2021/06/18 03:56:37;;;;;;;64.70;42.10;;;21.60;99.90;;;;;;5086104;28;20229;-75
2021/06/18 03:59:05;;;;;;;65.90;42.88;;;21.50;99.90;;;;;;5085510;28;20229;-74
2021/06/18 04:01:32;;;;;;;74.45;44.67;;;21.30;99.90;;;;;;5085627;28;20662;-73
2021/06/18 04:04:00;;;;;;;71.70;44.72;;;21.20;99.90;;;;;;5081008;28;20212;-75
2021/06/18 04:06:29;;;;;;;75.38;46.60;;;21.10;99.90;;;;;;5093193;28;20574;-74
2021/06/18 04:08:56;;;;;;;86.93;48.75;;;21.00;99.90;;;;;;5082141;28;20229;-74
2021/06/18 04:11:24;;;;;;;70.68;45.80;;;21.00;99.90;;;;;;5086937;28;20208;-75
2021/06/18 04:13:52;;;;;;;83.50;49.33;;;20.90;99.90;;;;;;5082141;28;20209;-74
2021/06/18 04:16:19;;;;;;;87.45;51.42;;;20.90;99.90;;;;;;5089305;28;20213;-74
2021/06/18 04:18:47;;;;;;;83.93;50.65;;;20.90;99.90;;;;;;5086310;28;20209;-76
2021/06/18 04:21:17;;;;;;;106.65;61.45;;;20.90;99.90;;;;;;5091972;28;20418;-75
2021/06/18 04:23:43;;;;;;;110.18;61.40;;;21.30;99.90;;;;;;5088896;28;20844;-75
2021/06/18 04:26:10;;;;;;;92.85;56.22;;;21.50;99.90;;;;;;5090316;28;20205;-75
2021/06/18 04:28:38;;;;;;;93.55;53.78;;;21.30;99.90;;;;;;5086314;28;20618;-75
2021/06/18 04:31:07;;;;;;;98.03;56.55;;;21.20;99.90;;;;;;5088024;28;20198;-75
2021/06/18 04:33:35;;;;;;;92.28;56.83;;;21.10;99.90;;;;;;5092090;28;20263;-73
2021/06/18 04:36:02;;;;;;;102.20;60.63;;;21.00;99.90;;;;;;5091478;28;20384;-76
2021/06/18 04:38:29;;;;;;;99.05;60.65;;;20.90;99.90;;;;;;5086426;28;20209;-75
2021/06/18 04:40:57;;;;;;;106.18;61.10;;;20.90;99.90;;;;;;5090150;28;20286;-73
2021/06/18 04:43:24;;;;;;;110.95;64.57;;;20.90;99.90;;;;;;5089542;28;20666;-74
2021/06/18 04:45:51;;;;;;;113.22;65.95;;;20.90;99.90;;;;;;5088644;28;20198;-73
2021/06/18 04:48:20;;;;;;;151.90;83.32;;;20.90;99.90;;;;;;5086165;28;20528;-74
2021/06/18 04:50:47;;;;;;;129.52;73.30;;;21.30;99.90;;;;;;5091579;28;20240;-73
2021/06/18 04:53:15;;;;;;;133.38;73.90;;;21.20;99.90;;;;;;5086601;28;20582;-75
2021/06/18 04:55:42;;;;;;;125.40;73.47;;;21.10;99.90;;;;;;5091276;28;20202;-74
2021/06/18 04:58:11;;;;;;;123.03;71.97;;;21.00;99.90;;;;;;5088487;28;20294;-74
2021/06/18 05:00:38;;;;;;;148.43;87.65;;;20.90;99.90;;;;;;5077122;28;20475;-74
2021/06/18 05:03:05;;;;;;;174.57;93.80;;;21.30;99.90;;;;;;5084600;28;20413;-73
2021/06/18 05:05:33;;;;;;;125.90;74.72;;;21.50;99.90;;;;;;5091349;28;20226;-74
2021/06/18 05:08:00;;;;;;;127.28;74.20;;;21.30;99.90;;;;;;5089108;28;20294;-74
2021/06/18 05:10:27;;;;;;;151.35;88.40;;;21.10;99.90;;;;;;5096679;28;20452;-79
2021/06/18 05:12:54;;;;;;;140.33;85.43;;;21.50;99.90;;;;;;5086810;28;20460;-74
2021/06/18 05:15:21;;;;;;;140.13;79.30;;;21.70;99.90;;;;;;5090026;28;20205;-74
2021/06/18 05:17:48;;;;;;;124.95;78.20;;;21.40;99.90;;;;;;5088433;28;20658;-73
2021/06/18 05:20:16;;;;;;;136.45;82.03;;;21.30;99.90;;;;;;5090102;28;20221;-74
2021/06/18 05:22:44;;;;;;;115.45;70.63;;;21.10;99.90;;;;;;5086479;28;20599;-75
2021/06/18 05:25:12;;;;;;;127.97;78.90;;;21.10;99.90;;;;;;5089390;28;21190;-75
2021/06/18 05:27:39;;;;;;;127.22;80.95;;;21.10;99.90;;;;;;5085931;28;20214;-74
2021/06/18 05:30:09;;;;;;;135.82;83.25;;;21.00;99.90;;;;;;5088623;28;20703;-75
2021/06/18 05:32:36;;;;;;;125.05;77.07;;;21.00;99.90;;;;;;5087668;28;20217;-75
2021/06/18 05:35:04;;;;;;;170.75;101.45;;;21.00;99.90;;;;;;5096456;28;20423;-75
2021/06/18 05:37:30;;;;;;;150.45;89.82;;;21.40;99.90;;;;;;5076652;28;20210;-74
2021/06/18 05:39:59;;;;;;;134.02;82.45;;;21.20;99.90;;;;;;5089477;28;20224;-75
2021/06/18 05:42:26;;;;;;;144.73;86.55;;;21.20;99.90;;;;;;5086419;28;20206;-75
2021/06/18 05:44:52;;;;;;;132.05;83.43;;;21.10;99.90;;;;;;5085691;28;20666;-74
2021/06/18 05:47:19;;;;;;;144.35;88.82;;;21.10;99.90;;;;;;5088197;28;20202;-73
2021/06/18 05:49:46;;;;;;;137.25;87.85;;;21.10;99.90;;;;;;5089229;28;20414;-72
2021/06/18 05:52:13;;;;;;;122.45;82.65;;;21.50;99.90;;;;;;5092128;28;20432;-72
2021/06/18 05:54:40;;;;;;;113.97;79.93;;;21.70;99.90;;;;;;5089261;28;20735;-73
2021/06/18 05:57:08;;;;;;;120.43;76.53;;;21.50;99.90;;;;;;5088441;28;20716;-73
2021/06/18 05:59:37;;;;;;;123.25;74.93;;;21.40;99.90;;;;;;5080941;28;20228;-73
2021/06/18 06:02:04;;;;;;;119.53;73.97;;;21.30;99.90;;;;;;5084623;28;20242;-74
2021/06/18 06:04:31;;;;;;;117.85;75.38;;;21.30;99.90;;;;;;5087208;28;20205;-74
2021/06/18 06:06:58;;;;;;;115.03;73.32;;;21.30;99.90;;;;;;5083522;28;20194;-74
2021/06/18 06:09:25;;;;;;;116.22;73.30;;;21.30;99.90;;;;;;5085396;28;20225;-75
2021/06/18 06:11:52;;;;;;;115.88;71.65;;;21.20;99.90;;;;;;5088993;28;20673;-73
2021/06/18 06:14:21;;;;;;;104.57;66.70;;;21.30;99.90;;;;;;5086831;28;20205;-73
2021/06/18 06:16:48;;;;;;;103.22;66.13;;;21.30;99.90;;;;;;5085718;28;20223;-73
2021/06/18 06:19:15;;;;;;;93.10;60.28;;;21.30;99.90;;;;;;5092245;28;20209;-74
2021/06/18 06:21:43;;;;;;;93.63;60.25;;;21.30;99.90;;;;;;5090117;28;20214;-72
2021/06/18 06:24:11;;;;;;;90.43;62.42;;;21.30;99.90;;;;;;5085601;28;20198;-74
2021/06/18 06:26:38;;;;;;;96.90;62.25;;;21.30;99.90;;;;;;5089073;28;20201;-74
2021/06/18 06:29:05;;;;;;;82.95;55.97;;;21.40;99.90;;;;;;5086879;28;20202;-72
2021/06/18 06:31:33;;;;;;;81.07;55.15;;;21.40;99.90;;;;;;5085810;28;20651;-72
2021/06/18 06:34:00;;;;;;;93.22;62.53;;;21.40;99.90;;;;;;5088160;28;20197;-72
2021/06/18 06:36:27;;;;;;;94.68;67.65;;;21.50;99.90;;;;;;5090007;28;20209;-72
2021/06/18 06:38:54;;;;;;;89.25;61.72;;;21.50;99.90;;;;;;5086095;28;20202;-75
2021/06/18 06:41:21;;;;;;;98.80;62.53;;;21.50;99.90;;;;;;5088800;28;20300;-74
2021/06/18 06:43:48;;;;;;;83.57;59.33;;;21.50;99.90;;;;;;5088580;28;20705;-74
2021/06/18 06:46:14;;;;;;;87.18;59.75;;;21.60;99.90;;;;;;5087079;28;20206;-73
2021/06/18 06:48:43;;;;;;;81.57;54.20;;;21.60;99.90;;;;;;5092068;28;20198;-74
2021/06/18 06:51:09;;;;;;;78.43;53.40;;;21.60;99.90;;;;;;5090433;28;20201;-73
2021/06/18 06:53:36;;;;;;;91.82;57.50;;;21.70;99.90;;;;;;5089920;28;20982;-74
2021/06/18 06:56:03;;;;;;;79.30;54.13;;;21.70;99.90;;;;;;5092455;28;20208;-74
2021/06/18 06:58:30;;;;;;;80.85;55.85;;;21.80;99.90;;;;;;5089094;28;20225;-73
2021/06/18 07:00:57;;;;;;;84.88;57.00;;;21.80;99.90;;;;;;5086531;28;20698;-76
2021/06/18 07:03:24;;;;;;;73.90;53.65;;;21.80;99.90;;;;;;5085840;28;20212;-73
2021/06/18 07:05:53;;;;;;;78.82;55.38;;;21.90;99.90;;;;;;5090528;28;20201;-73
2021/06/18 07:08:22;;;;;;;71.60;52.42;;;21.90;99.90;;;;;;5090085;28;20201;-73
2021/06/18 07:10:50;;;;;;;71.57;52.20;;;21.90;99.90;;;;;;5090079;28;20255;-73
2021/06/18 07:13:17;;;;;;;77.47;53.97;;;22.00;99.90;;;;;;5095305;28;20198;-75
2021/06/18 07:15:46;;;;;;;76.90;51.80;;;22.00;99.90;;;;;;5089840;28;20202;-73
2021/06/18 07:18:13;;;;;;;70.70;49.15;;;22.00;99.90;;;;;;5090387;28;20202;-73
2021/06/18 07:20:40;;;;;;;70.05;50.38;;;22.00;99.90;;;;;;5088494;28;20735;-72
2021/06/18 07:23:09;;;;;;;70.22;49.03;;;22.10;99.90;;;;;;5089467;28;20209;-73
2021/06/18 07:25:36;;;;;;;61.03;46.30;;;22.10;99.90;;;;;;5086550;28;20233;-74
2021/06/18 07:28:03;;;;;;;61.60;44.33;;;22.10;99.90;;;;;;5088264;28;20580;-72
2021/06/18 07:30:30;;;;;;;54.92;42.92;;;22.20;99.90;;;;;;5080361;28;20776;-72
2021/06/18 07:32:57;;;;;;;52.03;38.92;;;22.20;99.90;;;;;;5084415;28;20228;-72
2021/06/18 07:35:24;;;;;;;50.65;37.08;;;22.30;99.90;;;;;;5086021;28;20310;-73
2021/06/18 07:37:51;;;;;;;45.15;35.40;;;22.30;99.90;;;;;;5084569;28;20231;-73
2021/06/18 07:40:19;;;;;;;50.15;34.55;;;22.30;99.90;;;;;;5085903;28;20920;-72
2021/06/18 07:42:46;;;;;;;39.13;33.25;;;22.30;99.90;;;;;;5087853;28;20201;-72
2021/06/18 07:45:14;;;;;;;41.63;34.80;;;22.40;99.90;;;;;;5093274;28;20314;-72
2021/06/18 07:47:41;;;;;;;40.85;32.35;;;22.40;99.90;;;;;;5087798;28;20213;-73
2021/06/18 07:50:11;;;;;;;41.38;31.73;;;22.40;99.90;;;;;;5095111;28;20217;-73
2021/06/18 07:52:38;;;;;;;35.05;27.83;;;22.50;99.90;;;;;;5089548;28;20205;-73
2021/06/18 07:55:07;;;;;;;33.05;27.08;;;22.40;99.90;;;;;;5098885;28;20281;-74
2021/06/18 07:57:36;;;;;;;34.35;27.33;;;22.40;99.90;;;;;;5084207;28;20229;-75
2021/06/18 08:00:04;;;;;;;38.65;27.63;;;22.40;99.90;;;;;;5087525;28;20654;-75
2021/06/18 08:02:37;;;;;;;40.40;31.27;;;22.50;99.90;;;;;;5083235;28;20209;-74
2021/06/18 08:05:06;;;;;;;33.13;26.40;;;22.50;99.90;;;;;;5086755;28;20202;-76
2021/06/18 08:07:32;;;;;;;36.20;28.73;;;22.50;99.90;;;;;;5089857;28;20209;-73
2021/06/18 08:09:59;;;;;;;33.25;27.10;;;22.50;99.90;;;;;;5092680;28;20197;-75
2021/06/18 08:12:26;;;;;;;32.83;27.50;;;22.50;99.90;;;;;;5092292;28;20197;-76
2021/06/18 08:14:54;;;;;;;36.53;29.08;;;22.50;99.90;;;;;;5090616;28;20206;-75
2021/06/18 08:17:21;;;;;;;34.85;26.58;;;22.50;99.90;;;;;;5087266;28;21056;-76
2021/06/18 08:19:48;;;;;;;34.92;27.40;;;22.50;99.90;;;;;;5091707;28;20258;-74
2021/06/18 08:22:15;;;;;;;33.35;27.00;;;22.50;99.90;;;;;;5085201;28;20224;-76
2021/06/18 08:24:43;;;;;;;33.42;27.55;;;22.50;99.90;;;;;;5091321;28;20209;-77
2021/06/18 08:27:10;;;;;;;36.95;29.38;;;22.60;99.90;;;;;;5086643;28;20578;-77
2021/06/18 08:29:37;;;;;;;34.35;28.60;;;22.60;99.90;;;;;;5088296;28;20538;-76
2021/06/18 08:32:06;;;;;;;39.28;31.65;;;22.60;99.90;;;;;;5085752;28;20204;-76
2021/06/18 08:34:33;;;;;;;41.17;32.03;;;22.70;99.90;;;;;;5089937;28;20544;-77
2021/06/18 08:37:00;;;;;;;40.40;30.85;;;22.70;99.90;;;;;;5087383;28;20632;-74
2021/06/18 08:39:27;;;;;;;40.60;31.75;;;22.70;99.90;;;;;;5086946;28;20205;-74
2021/06/18 08:41:54;;;;;;;37.80;30.40;;;22.80;99.90;;;;;;5085411;28;20225;-75
2021/06/18 08:44:21;;;;;;;36.22;30.10;;;22.80;99.90;;;;;;5085570;28;20590;-75
2021/06/18 08:46:48;;;;;;;35.00;29.00;;;22.90;99.90;;;;;;5092587;28;20653;-77
2021/06/18 08:49:16;;;;;;;36.47;28.85;;;22.90;99.90;;;;;;5089838;28;20682;-75
2021/06/18 08:51:43;;;;;;;30.13;25.88;;;23.00;99.90;;;;;;5091962;28;20209;-75
2021/06/18 08:54:12;;;;;;;37.65;27.73;;;23.00;99.90;;;;;;5089476;28;20200;-77
2021/06/18 08:56:40;;;;;;;32.80;24.15;;;23.10;99.90;;;;;;5088198;28;20320;-75
2021/06/18 08:59:07;;;;;;;30.98;25.88;;;23.10;99.90;;;;;;5091863;28;20198;-77
2021/06/18 09:01:33;;;;;;;34.45;25.48;;;23.20;99.90;;;;;;5084996;28;20222;-76
2021/06/18 09:04:04;;;;;;;29.60;23.30;;;23.20;99.90;;;;;;5088721;28;20612;-73
2021/06/18 09:06:34;;;;;;;29.08;23.42;;;23.30;99.90;;;;;;5091171;28;20194;-73
2021/06/18 09:09:16;;;;;;;28.60;22.77;;;23.30;99.90;;;;;;5091512;28;20284;-71
2021/06/18 09:11:48;;;;;;;31.20;23.60;;;23.40;99.90;;;;;;5088573;28;20212;-71
2021/06/18 09:14:23;;;;;;;28.92;23.65;;;23.50;99.90;;;;;;5090648;28;20269;-74
2021/06/18 09:17:22;;;;;;;28.50;22.23;;;23.50;99.90;;;;;;5086093;28;20209;-71
2021/06/18 09:19:52;;;;;;;25.45;20.08;;;23.60;99.90;;;;;;5088918;28;20202;-72
2021/06/18 09:22:22;;;;;;;24.52;19.88;;;23.60;99.90;;;;;;5087432;28;20229;-73
2021/06/18 09:24:58;;;;;;;24.05;20.13;;;23.70;99.90;;;;;;5090823;28;20285;-72
2021/06/18 09:27:31;;;;;;;25.08;19.02;;;23.70;99.90;;;;;;5089355;28;20215;-73
2021/06/18 09:29:58;;;;;;;21.75;17.35;;;23.80;99.90;;;;;;5091374;28;20198;-72
2021/06/18 09:32:25;;;;;;;20.40;16.15;;;23.80;99.90;;;;;;5087513;28;20194;-73
2021/06/18 09:34:59;;;;;;;22.65;17.58;;;23.80;99.90;;;;;;5089903;28;20197;-72
2021/06/18 09:37:31;;;;;;;19.48;16.08;;;23.90;99.90;;;;;;5089527;28;20259;-75
2021/06/18 09:40:08;;;;;;;21.83;17.90;;;23.90;99.90;;;;;;5092149;28;20201;-77
2021/06/18 09:42:40;;;;;;;25.58;21.23;;;24.00;99.90;;;;;;5089005;28;20217;-74
2021/06/18 09:45:10;;;;;;;27.35;20.73;;;24.00;99.90;;;;;;5088699;28;20286;-74
2021/06/18 09:47:38;;;;;;;24.20;19.80;;;24.10;99.90;;;;;;5087866;28;20300;-74
2021/06/18 09:50:20;;;;;;;27.88;19.55;;;24.10;99.90;;;;;;5090143;28;20216;-73
2021/06/18 09:52:49;;;;;;;19.90;17.00;;;24.20;99.90;;;;;;5089025;28;20697;-73
2021/06/18 09:55:22;;;;;;;25.80;18.10;;;24.20;99.90;;;;;;5092181;28;20241;-72
2021/06/18 09:57:54;;;;;;;22.17;16.35;;;24.20;99.90;;;;;;5086449;28;20240;-74
2021/06/18 10:00:21;;;;;;;21.45;15.13;;;24.30;99.90;;;;;;5091174;28;20665;-74
2021/06/18 10:02:50;;;;;;;19.58;14.82;;;24.40;99.90;;;;;;5083887;28;20229;-72
2021/06/18 10:05:19;;;;;;;17.27;12.88;;;24.40;99.90;;;;;;5086575;28;20201;-73
2021/06/18 10:07:50;;;;;;;17.77;13.25;;;24.50;99.90;;;;;;5086441;28;20213;-73
2021/06/18 10:10:18;;;;;;;16.55;12.75;;;24.50;99.90;;;;;;5095937;28;20194;-76
2021/06/18 10:12:46;;;;;;;16.90;12.55;;;24.50;99.90;;;;;;5089758;28;20251;-73
2021/06/18 10:15:16;;;;;;;19.67;14.80;;;24.60;99.90;;;;;;5091644;28;20202;-75
2021/06/18 10:17:44;;;;;;;16.90;13.95;;;24.70;99.90;;;;;;5088536;28;20194;-70
2021/06/18 10:20:13;;;;;;;19.10;14.43;;;24.70;99.90;;;;;;5091193;28;20214;-73
2021/06/18 10:22:49;;;;;;;23.65;15.00;;;24.80;99.90;;;;;;5087053;28;20221;-72
2021/06/18 10:25:20;;;;;;;19.45;14.18;;;24.80;99.90;;;;;;5090708;28;20201;-74
2021/06/18 10:27:48;;;;;;;16.17;12.32;;;24.80;99.90;;;;;;5088120;28;20210;-73
2021/06/18 10:30:27;;;;;;;16.75;11.82;;;24.90;99.90;;;;;;5093471;28;20666;-74
2021/06/18 10:32:55;;;;;;;17.80;12.20;;;25.00;99.90;;;;;;5088673;28;20227;-70
2021/06/18 10:35:48;;;;;;;17.00;11.10;;;25.00;99.90;;;;;;5091196;28;20220;-74
2021/06/18 10:38:26;;;;;;;15.73;11.38;;;25.10;99.90;;;;;;5090840;28;20204;-72
2021/06/18 10:40:54;;;;;;;12.60;10.60;;;25.20;99.90;;;;;;5087762;28;20217;-73
2021/06/18 10:43:21;;;;;;;14.13;12.38;;;25.40;99.90;;;;;;5091983;28;20579;-74
2021/06/18 10:46:28;;;;;;;14.63;9.82;;;25.50;99.90;;;;;;5088008;28;20217;-75
2021/06/18 10:49:10;;;;;;;14.63;10.60;;;25.60;99.90;;;;;;5087895;28;20574;-73
2021/06/18 10:51:39;;;;;;;14.45;11.15;;;25.70;99.90;;;;;;5090838;28;20207;-72
2021/06/18 10:54:10;;;;;;;17.38;11.25;;;25.90;99.90;;;;;;5092506;28;20279;-73
2021/06/18 10:57:03;;;;;;;21.23;10.85;;;26.00;99.90;;;;;;5083497;28;20290;-72
2021/06/18 10:59:37;;;;;;;10.52;9.05;;;26.10;99.90;;;;;;5090817;28;20247;-74
2021/06/18 11:02:31;;;;;;;19.70;11.43;;;26.10;99.70;;;;;;5078652;28;20422;-72
2021/06/18 11:04:59;;;;;;;16.35;10.88;;;26.70;97.50;;;;;;5086078;28;20513;-72
2021/06/18 11:07:28;;;;;;;14.10;9.93;;;27.00;95.10;;;;;;5086953;28;20432;-73
2021/06/18 11:09:56;;;;;;;12.85;9.98;;;27.30;94.60;;;;;;5089721;28;20951;-73
2021/06/18 11:12:44;;;;;;;15.90;10.50;;;27.40;94.00;;;;;;5084722;28;20798;-72
2021/06/18 11:15:40;;;;;;;15.48;10.52;;;27.50;93.00;;;;;;5088020;28;20913;-72
2021/06/18 11:18:14;;;;;;;16.35;12.35;;;27.50;93.20;;;;;;5085078;28;20426;-75
2021/06/18 11:21:00;;;;;;;15.10;12.18;;;27.60;92.60;;;;;;5085324;28;20512;-72
2021/06/18 11:23:31;;;;;;;19.27;13.68;;;27.80;92.30;;;;;;5087846;28;20425;-73
2021/06/18 11:26:04;;;;;;;20.03;12.97;;;27.80;92.50;;;;;;5089257;28;20406;-73
2021/06/18 11:28:36;;;;;;;16.95;14.00;;;27.90;91.80;;;;;;5086576;28;20440;-72
2021/06/18 11:31:07;;;;;;;20.30;13.85;;;28.00;92.10;;;;;;5090864;28;20429;-73
2021/06/18 11:33:50;;;;;;;20.73;15.18;;;28.10;91.40;;;;;;5081913;28;20470;-72
2021/06/18 11:36:43;;;;;;;21.40;16.40;;;28.20;91.20;;;;;;5085952;28;20440;-72
2021/06/18 11:39:21;;;;;;;20.80;16.20;;;28.30;91.00;;;;;;5088633;28;20812;-73
2021/06/18 11:42:06;;;;;;;20.92;16.15;;;28.40;91.10;;;;;;5084166;28;20429;-74
2021/06/18 11:44:34;;;;;;;20.63;16.00;;;28.50;90.90;;;;;;5086998;28;20417;-74
2021/06/18 11:47:01;;;;;;;21.73;17.95;;;28.60;90.80;;;;;;5081977;28;20756;-71
2021/06/18 11:49:36;;;;;;;21.85;17.67;;;28.60;90.20;;;;;;5088536;28;20413;-72
2021/06/18 11:52:09;;;;;;;23.63;19.30;;;28.70;90.20;;;;;;5086711;28;20844;-72
2021/06/18 11:54:39;;;;;;;21.23;17.30;;;28.70;90.10;;;;;;5087424;28;20763;-73
2021/06/18 11:57:11;;;;;;;27.90;21.10;;;28.70;90.20;;;;;;5083443;28;20420;-71
2021/06/18 11:59:40;;;;;;;26.27;20.43;;;28.80;90.30;;;;;;5087530;28;20417;-72
2021/06/18 12:02:15;;;;;;;21.73;18.30;;;28.90;90.40;;;;;;5082004;28;20898;-73
2021/06/18 12:04:43;;;;;;;21.05;18.15;;;28.90;90.00;;;;;;5088415;28;20416;-71
2021/06/18 12:07:09;;;;;;;25.20;22.27;;;29.10;89.20;;;;;;5086451;28;20432;-72
2021/06/18 12:09:41;;;;;;;24.17;21.33;;;29.20;89.80;;;;;;5088757;28;20414;-72
2021/06/18 12:12:10;;;;;;;21.02;18.48;;;29.20;88.40;;;;;;5084587;28;20543;-70
2021/06/18 12:14:39;;;;;;;24.38;19.48;;;29.40;90.00;;;;;;5084128;28;20915;-77
2021/06/18 12:17:07;;;;;;;24.05;19.40;;;29.50;90.20;;;;;;5086535;28;20448;-74
2021/06/18 12:19:37;;;;;;;25.55;20.60;;;29.60;89.10;;;;;;5092104;28;20431;-71
2021/06/18 12:22:07;;;;;;;25.85;20.00;;;29.80;88.40;;;;;;5087287;28;20501;-72
2021/06/18 12:24:38;;;;;;;22.77;19.60;;;29.90;87.10;;;;;;5087960;28;20417;-72
2021/06/18 12:27:07;;;;;;;26.27;22.70;;;30.00;87.50;;;;;;5085808;28;20689;-73
2021/06/18 12:29:38;;;;;;;24.58;21.10;;;29.70;88.90;;;;;;5090021;28;21662;-74
2021/06/18 12:32:05;;;;;;;26.88;22.90;;;29.50;90.00;;;;;;5079966;28;20430;-73
2021/06/18 12:34:32;;;;;;;26.90;22.38;;;29.80;88.40;;;;;;5086167;28;20566;-73
2021/06/18 12:37:04;;;;;;;28.95;23.60;;;30.10;87.20;;;;;;5088555;28;20417;-76
2021/06/18 12:39:31;;;;;;;27.73;22.48;;;30.20;86.00;;;;;;5083772;28;20430;-72